Time;durP1;ratioP1;P1;durP2;ratioP2;P2;SDS_P1;SDS_P2;PMS_P1;PMS_P2;Temp;Humidity;BMP_temperature;BMP_pressure;BME280_temperature;BME280_humidity;BME280_pressure;Samples;Min_cycle;Max_cycle;Signal;HPM_P1;HPM_P2
2022/01/01 00:01:27;;;;;;;0.30;0.30;;;;;;;22.82;12.36;99208.13;5055960;28;20488;-72
2022/01/01 00:03:52;;;;;;;0.30;0.30;;;;;;;22.80;12.30;99217.69;5055954;28;20021;-72
2022/01/01 00:06:18;;;;;;;0.20;0.20;;;;;;;22.80;12.34;99218.53;5055548;28;20430;-72
2022/01/01 00:08:44;;;;;;;0.20;0.20;;;;;;;22.82;12.13;99223.69;5055718;28;20021;-72
2022/01/01 00:11:09;;;;;;;0.20;0.20;;;;;;;22.80;12.21;99229.41;5055631;28;20025;-72
2022/01/01 00:13:34;;;;;;;0.13;0.13;;;;;;;22.81;12.29;99235.66;5068677;28;20075;-72
2022/01/01 00:16:00;;;;;;;0.30;0.30;;;;;;;22.80;12.37;99236.75;5075049;28;20067;-72
2022/01/01 00:18:25;;;;;;;0.20;0.20;;;;;;;22.78;12.18;99239.78;5075436;28;20040;-72
2022/01/01 00:20:51;;;;;;;0.20;0.20;;;;;;;22.80;12.38;99243.03;5075328;28;20040;-72
2022/01/01 00:23:16;;;;;;;0.30;0.30;;;;;;;22.82;12.35;99237.28;5075826;28;20021;-72
2022/01/01 00:25:41;;;;;;;0.20;0.20;;;;;;;22.81;12.35;99238.38;5075781;28;20053;-72
2022/01/01 00:28:07;;;;;;;0.20;0.20;;;;;;;22.80;12.28;99242.22;5075540;28;20032;-72
2022/01/01 00:30:32;;;;;;;0.20;0.20;;;;;;;22.78;12.10;99247.16;5075873;28;20459;-72
2022/01/01 00:32:58;;;;;;;0.30;0.30;;;;;;;22.79;12.25;99238.69;5075639;28;20455;-72
2022/01/01 00:35:23;;;;;;;0.22;0.22;;;;;;;22.79;12.24;99254.22;5074644;28;20413;-73
2022/01/01 00:37:48;;;;;;;0.20;0.20;;;;;;;22.79;12.35;99254.22;5075942;28;20123;-72
2022/01/01 00:40:14;;;;;;;0.20;0.20;;;;;;;22.78;12.07;99261.56;5075186;28;20471;-73
2022/01/01 00:42:39;;;;;;;0.30;0.30;;;;;;;22.80;12.08;99266.72;5075384;28;20036;-73
2022/01/01 00:45:05;;;;;;;0.30;0.30;;;;;;;22.77;12.10;99270.06;5075708;28;20025;-72
2022/01/01 00:47:30;;;;;;;0.20;0.20;;;;;;;22.78;12.09;99266.22;5075577;28;20367;-72
2022/01/01 00:49:56;;;;;;;0.30;0.30;;;;;;;22.74;11.97;99260.56;5074405;28;20058;-73
2022/01/01 00:52:21;;;;;;;0.20;0.20;;;;;;;22.75;12.16;99264.91;5076915;28;20411;-73
2022/01/01 00:54:47;;;;;;;0.30;0.30;;;;;;;22.77;12.12;99275.50;5078192;28;20596;-72
2022/01/01 00:57:12;;;;;;;0.30;0.30;;;;;;;22.79;12.07;99273.28;5073684;28;20028;-72
2022/01/01 00:59:37;;;;;;;0.28;0.28;;;;;;;22.77;11.97;99281.75;5074858;28;20025;-73
2022/01/01 01:02:03;;;;;;;0.22;0.22;;;;;;;22.76;12.08;99284.78;5074725;28;20021;-72
2022/01/01 01:04:28;;;;;;;0.38;0.30;;;;;;;22.76;11.90;99282.84;5074469;28;20463;-73
2022/01/01 01:06:54;;;;;;;0.20;0.20;;;;;;;22.77;11.85;99283.69;5074710;28;20033;-72
2022/01/01 01:09:19;;;;;;;0.30;0.30;;;;;;;22.75;11.85;99288.59;5074170;28;20028;-73
2022/01/01 01:11:47;;;;;;;0.22;0.22;;;;;;;22.75;11.92;99291.31;5074540;28;20074;-73
2022/01/01 01:14:20;;;;;;;0.20;0.20;;;;;;;22.74;11.96;99300.59;5057793;28;20029;-73
2022/01/01 01:16:46;;;;;;;0.30;0.30;;;;;;;22.75;11.93;99304.94;5054533;28;20069;-73
2022/01/01 01:19:12;;;;;;;0.20;0.20;;;;;;;22.76;11.72;99312.00;5054258;28;20052;-73
2022/01/01 01:21:37;;;;;;;0.30;0.30;;;;;;;22.76;11.85;99310.09;5054482;28;20021;-73
2022/01/01 01:24:03;;;;;;;0.22;0.22;;;;;;;22.76;11.98;99303.84;5054118;28;20464;-73
2022/01/01 01:26:29;;;;;;;0.20;0.20;;;;;;;22.75;12.00;99304.94;5054358;28;20021;-73
2022/01/01 01:28:56;;;;;;;0.20;0.20;;;;;;;22.72;11.95;99292.72;5054937;28;20029;-73
2022/01/01 01:31:23;;;;;;;0.20;0.20;;;;;;;22.74;11.75;99303.31;5054404;28;20121;-72
2022/01/01 01:33:49;;;;;;;0.30;0.30;;;;;;;22.75;11.76;99303.03;5053106;28;20089;-72
2022/01/01 01:36:14;;;;;;;0.30;0.30;;;;;;;22.75;11.90;99296.75;5053903;28;20444;-72
2022/01/01 01:38:40;;;;;;;0.20;0.20;;;;;;;22.73;11.95;99309.88;5054535;28;20051;-72
2022/01/01 01:41:06;;;;;;;0.20;0.20;;;;;;;22.72;11.75;99313.72;5054082;28;20029;-72
2022/01/01 01:43:32;;;;;;;0.20;0.20;;;;;;;22.71;11.79;99322.97;5054130;28;20039;-73
2022/01/01 01:46:02;;;;;;;0.30;0.30;;;;;;;22.72;11.84;99324.59;5052417;28;20415;-72
2022/01/01 01:48:28;;;;;;;0.25;0.25;;;;;;;22.74;11.96;99316.94;5053662;28;20025;-72
2022/01/01 01:50:55;;;;;;;0.20;0.20;;;;;;;22.73;11.80;99316.09;5053882;28;20036;-72
2022/01/01 01:53:20;;;;;;;0.25;0.25;;;;;;;22.73;11.96;99316.09;5052623;28;20032;-73
2022/01/01 01:55:46;;;;;;;0.30;0.30;;;;;;;22.72;11.83;99319.16;5052645;28;20079;-73
2022/01/01 01:58:11;;;;;;;0.20;0.20;;;;;;;22.71;11.76;99333.88;5052309;28;20340;-73
2022/01/01 02:03:21;;;;;;;0.20;0.20;;;;;;;22.75;11.71;99334.88;5053639;28;20048;-72
2022/01/01 02:05:46;;;;;;;0.30;0.30;;;;;;;22.75;11.90;99334.88;5053533;28;20472;-74
2022/01/01 02:08:11;;;;;;;0.30;0.30;;;;;;;22.72;11.92;99335.50;5053479;28;20025;-73
2022/01/01 02:10:37;;;;;;;0.25;0.25;;;;;;;22.71;11.85;99344.75;5035411;28;20029;-73
2022/01/01 02:13:11;;;;;;;0.30;0.30;;;;;;;22.71;11.83;99345.56;5058375;28;20028;-73
2022/01/01 02:16:13;;;;;;;0.35;0.35;;;;;;;22.73;11.85;99358.88;5070744;28;20529;-72
2022/01/01 02:18:34;;;;;;;0.40;0.40;;;;;;;22.71;11.97;99363.81;5073097;28;20040;-72
2022/01/01 02:20:59;;;;;;;0.40;0.40;;;;;;;22.73;11.83;99367.06;5072443;28;20119;-72
2022/01/01 02:23:26;;;;;;;0.30;0.30;;;;;;;22.69;11.95;99380.44;5073342;28;20047;-72
2022/01/01 02:25:56;;;;;;;0.30;0.30;;;;;;;22.71;11.91;99380.97;5073067;28;20386;-73
2022/01/01 02:28:21;;;;;;;0.30;0.30;;;;;;;22.73;11.80;99386.91;5073370;28;20107;-72
2022/01/01 02:30:48;;;;;;;0.25;0.25;;;;;;;22.71;11.89;99382.88;5073508;28;20060;-72
2022/01/01 02:33:13;;;;;;;0.30;0.30;;;;;;;22.69;11.83;99397.59;5073564;28;20029;-73
2022/01/01 02:35:39;;;;;;;0.38;0.38;;;;;;;22.68;11.96;99395.19;5072995;28;20028;-73
2022/01/01 02:38:06;;;;;;;0.30;0.30;;;;;;;22.69;11.84;99403.03;5073625;28;20037;-73
2022/01/01 02:40:31;;;;;;;0.30;0.30;;;;;;;22.69;11.84;99396.78;5072981;28;20032;-72
2022/01/01 02:42:57;;;;;;;0.32;0.32;;;;;;;22.67;11.92;99401.72;5073284;28;20073;-72
2022/01/01 02:45:22;;;;;;;0.40;0.40;;;;;;;22.71;11.85;99412.84;5073232;28;20024;-72
2022/01/01 02:47:48;;;;;;;0.30;0.30;;;;;;;22.68;11.90;99415.06;5073150;28;20467;-73
2022/01/01 02:50:13;;;;;;;0.32;0.32;;;;;;;22.68;11.82;99409.59;5073332;28;20021;-72
2022/01/01 02:52:39;;;;;;;0.35;0.35;;;;;;;22.67;11.98;99409.91;5072954;28;20074;-72
2022/01/01 02:55:05;;;;;;;0.30;0.30;;;;;;;22.67;11.92;99415.34;5073120;28;20024;-73
2022/01/01 02:57:31;;;;;;;0.30;0.30;;;;;;;22.69;11.89;99418.56;5072009;28;20024;-72
2022/01/01 02:59:56;;;;;;;0.30;0.30;;;;;;;22.68;11.80;99423.22;5073390;28;20447;-72
2022/01/01 03:02:21;;;;;;;0.40;0.40;;;;;;;22.65;11.99;99423.81;5071949;28;20025;-72
2022/01/01 03:04:47;;;;;;;0.38;0.38;;;;;;;22.67;11.92;99432.47;5073106;28;20052;-72
2022/01/01 03:07:12;;;;;;;0.30;0.30;;;;;;;22.67;11.83;99428.97;5072947;28;20390;-72
2022/01/01 03:09:38;;;;;;;0.30;0.30;;;;;;;22.68;11.89;99428.66;5071754;28;20419;-72
2022/01/01 03:12:12;;;;;;;0.77;0.43;;;;;;;22.66;11.80;99430.88;5072978;28;20024;-73
2022/01/01 03:14:37;;;;;;;;;;;;;;;22.90;11.81;99435.47;5057239;28;20096;-71
2022/01/01 03:17:04;;;;;;;0.30;0.30;;;;;;;22.75;12.00;99441.94;5052464;28;19967;-72
2022/01/01 03:19:29;;;;;;;0.30;0.30;;;;;;;22.71;11.73;99437.34;5052944;28;20029;-73
2022/01/01 03:21:54;;;;;;;0.40;0.40;;;;;;;22.68;11.97;99446.94;5053092;28;20048;-72
2022/01/01 03:24:20;;;;;;;0.30;0.30;;;;;;;22.69;11.89;99446.63;5052825;28;20048;-73
2022/01/01 03:26:45;;;;;;;0.40;0.40;;;;;;;22.68;11.86;99458.63;5055518;28;20021;-73
2022/01/01 03:29:11;;;;;;;0.30;0.30;;;;;;;22.66;11.86;99458.13;5056732;28;20332;-73
2022/01/01 03:31:36;;;;;;;0.30;0.30;;;;;;;22.67;11.79;99454.28;5057289;28;20452;-73
2022/01/01 03:34:02;;;;;;;0.30;0.30;;;;;;;22.66;11.96;99460.00;5056389;28;20490;-73
2022/01/01 03:36:27;;;;;;;0.30;0.30;;;;;;;22.65;11.85;99453.75;5056444;28;20033;-73
2022/01/01 03:38:53;;;;;;;0.30;0.30;;;;;;;22.66;11.85;99457.28;5056782;28;20040;-73
2022/01/01 03:41:19;;;;;;;0.20;0.20;;;;;;;22.63;11.84;99466.84;5056758;28;20516;-73
2022/01/01 03:43:45;;;;;;;0.32;0.32;;;;;;;22.65;11.92;99472.03;5057925;28;20028;-73
2022/01/01 03:46:10;;;;;;;0.30;0.30;;;;;;;22.63;11.75;99469.56;5060245;28;20039;-73
2022/01/01 03:48:35;;;;;;;0.40;0.40;;;;;;;22.66;11.78;99469.00;5057683;28;20025;-73
2022/01/01 03:51:01;;;;;;;0.28;0.28;;;;;;;;;;5060780;28;20058;-73
2022/01/01 03:53:26;;;;;;;0.30;0.30;;;;;;;22.62;11.88;99483.47;5067955;28;20029;-73
2022/01/01 03:55:52;;;;;;;0.40;0.40;;;;;;;22.63;11.85;99477.75;5062289;28;20033;-73
2022/01/01 03:58:18;;;;;;;0.40;0.40;;;;;;;22.65;11.84;99494.59;5065592;28;20025;-73
2022/01/01 04:00:43;;;;;;;0.30;0.30;;;;;;;22.64;11.88;99501.13;5069919;28;20017;-73
2022/01/01 04:03:10;;;;;;;0.20;0.20;;;;;;;22.61;11.87;99496.28;5072202;28;20036;-73
2022/01/01 04:05:35;;;;;;;0.22;0.22;;;;;;;22.61;11.78;99496.28;5068389;28;20040;-73
2022/01/01 04:08:02;;;;;;;0.28;0.28;;;;;;;22.62;11.80;99506.06;5055960;28;20120;-72
2022/01/01 04:10:30;;;;;;;0.30;0.30;;;;;;;22.61;11.71;99509.91;5056281;28;20075;-73
2022/01/01 04:12:56;;;;;;;0.30;0.30;;;;;;;22.61;11.75;99509.06;5055963;28;20029;-73
2022/01/01 04:15:21;;;;;;;0.30;0.30;;;;;;;22.62;11.68;99516.16;5056944;28;20339;-72
2022/01/01 04:17:47;;;;;;;0.40;0.40;;;;;;;22.60;11.67;99511.00;5075520;28;20040;-72
2022/01/01 04:20:12;;;;;;;0.20;0.20;;;;;;;22.60;11.67;99511.00;5075733;28;20040;-73
2022/01/01 04:22:38;;;;;;;0.30;0.30;;;;;;;22.63;11.75;99517.78;5075856;28;20382;-73
2022/01/01 04:25:03;;;;;;;0.22;0.22;;;;;;;22.63;11.84;99534.94;5075384;28;20383;-73
2022/01/01 04:27:29;;;;;;;0.30;0.30;;;;;;;22.60;11.75;99540.94;5075730;28;20150;-73
2022/01/01 04:29:54;;;;;;;0.20;0.20;;;;;;;22.61;11.83;99537.16;5075286;28;20386;-72
2022/01/01 04:32:20;;;;;;;0.25;0.25;;;;;;;22.61;11.72;99553.47;5075514;28;20040;-72
2022/01/01 04:34:45;;;;;;;0.30;0.30;;;;;;;22.60;11.80;99562.75;5075338;28;20058;-72
2022/01/01 04:37:13;;;;;;;0.30;0.30;;;;;;;22.60;11.61;99561.94;5075635;28;20044;-73
2022/01/01 04:39:38;;;;;;;0.40;0.40;;;;;;;22.58;11.78;99567.66;5074519;28;20040;-72
2022/01/01 04:42:04;;;;;;;0.40;0.30;;;;;;;22.58;11.86;99575.84;5075112;28;20107;-73
2022/01/01 04:44:29;;;;;;;0.40;0.40;;;;;;;22.58;11.85;99573.09;5075203;28;20093;-73
2022/01/01 04:46:55;;;;;;;0.20;0.20;;;;;;;22.61;11.70;99580.72;5075149;28;20027;-73
2022/01/01 04:49:22;;;;;;;0.30;0.30;;;;;;;22.61;11.57;99579.88;5073708;28;20025;-73
2022/01/01 04:51:47;;;;;;;0.25;0.25;;;;;;;22.59;11.67;99582.09;5074786;28;20470;-73
2022/01/01 04:54:16;;;;;;;0.30;0.30;;;;;;;22.60;11.55;99589.16;5074811;28;20024;-72
2022/01/01 04:56:44;;;;;;;0.30;0.30;;;;;;;22.60;11.50;99589.16;5073718;28;20115;-72
2022/01/01 04:59:11;;;;;;;0.30;0.30;;;;;;;22.57;11.59;99603.34;5074897;28;20473;-72
2022/01/01 05:01:36;;;;;;;0.30;0.30;;;;;;;22.58;11.53;99613.97;5073755;28;20021;-73
2022/01/01 05:04:02;;;;;;;0.30;0.30;;;;;;;22.58;11.62;99618.59;5073657;28;20024;-72
2022/01/01 05:06:27;;;;;;;0.40;0.40;;;;;;;22.56;11.39;99618.88;5074901;28;20036;-72
2022/01/01 05:08:53;;;;;;;0.30;0.30;;;;;;;22.59;11.44;99615.56;5074721;28;20119;-72
2022/01/01 05:11:18;;;;;;;0.20;0.20;;;;;;;22.58;11.39;99630.28;5074484;28;20025;-73
2022/01/01 05:13:43;;;;;;;0.30;0.30;;;;;;;22.60;11.41;99625.38;5070095;28;20028;-73
2022/01/01 05:16:14;;;;;;;0.20;0.20;;;;;;;22.60;11.41;99638.97;5054352;28;20040;-73
2022/01/01 05:18:39;;;;;;;0.30;0.30;;;;;;;22.59;11.40;99644.72;5054638;28;20032;-72
2022/01/01 05:21:05;;;;;;;0.30;0.30;;;;;;;22.57;11.25;99646.91;5054340;28;20486;-72
2022/01/01 05:23:30;;;;;;;0.20;0.20;;;;;;;22.58;11.26;99646.63;5054573;28;20028;-72
2022/01/01 05:25:56;;;;;;;0.20;0.20;;;;;;;22.59;11.12;99658.31;5054531;28;20017;-73
2022/01/01 05:28:21;;;;;;;0.28;0.28;;;;;;;22.57;11.33;99666.78;5054390;28;20025;-73
2022/01/01 05:30:46;;;;;;;0.35;0.35;;;;;;;22.58;11.22;99673.88;5054364;28;20078;-73
2022/01/01 05:33:12;;;;;;;0.30;0.30;;;;;;;22.57;11.26;99683.13;5054415;28;20040;-73
2022/01/01 05:35:38;;;;;;;0.30;0.30;;;;;;;22.58;11.27;99684.75;5054444;28;20094;-73
2022/01/01 05:38:03;;;;;;;0.28;0.28;;;;;;;22.58;11.21;99695.66;5053135;28;20033;-73
2022/01/01 05:40:30;;;;;;;0.30;0.30;;;;;;;22.57;11.38;99688.56;5054225;28;20021;-73
2022/01/01 05:42:55;;;;;;;0.30;0.30;;;;;;;22.57;11.24;99704.09;5052632;28;20025;-73
2022/01/01 05:45:21;;;;;;;0.40;0.40;;;;;;;22.56;11.18;99697.00;5053830;28;20086;-73
2022/01/01 05:47:46;;;;;;;0.30;0.30;;;;;;;22.56;11.25;99705.19;5053600;28;20025;-73
2022/01/01 05:50:12;;;;;;;0.30;0.30;;;;;;;22.56;11.08;99708.75;5053836;28;20029;-73
2022/01/01 05:52:37;;;;;;;0.30;0.30;;;;;;;22.53;11.04;99714.75;5053729;28;20029;-73
2022/01/01 05:55:03;;;;;;;0.30;0.30;;;;;;;22.55;11.26;99712.53;5053976;28;20029;-73
2022/01/01 05:57:28;;;;;;;0.30;0.30;;;;;;;22.54;11.11;99716.34;5054745;28;20049;-73
2022/01/01 05:59:53;;;;;;;0.30;0.30;;;;;;;22.54;11.14;99723.72;5053912;28;20025;-73
2022/01/01 06:02:19;;;;;;;0.30;0.30;;;;;;;22.55;11.20;99734.34;5053537;28;20025;-73
2022/01/01 06:04:44;;;;;;;0.32;0.32;;;;;;;22.54;11.22;99735.41;5053890;28;20079;-73
2022/01/01 06:07:10;;;;;;;0.20;0.20;;;;;;;22.56;11.01;99740.59;5053979;28;20035;-73
2022/01/01 06:09:36;;;;;;;0.35;0.35;;;;;;;22.55;11.13;99747.13;5053792;28;20047;-73
2022/01/01 06:12:01;;;;;;;0.22;0.22;;;;;;;22.55;11.06;99744.41;5053661;28;20475;-73
2022/01/01 06:14:27;;;;;;;0.20;0.20;;;;;;;22.55;10.96;99745.22;5061912;28;20028;-73
2022/01/01 06:16:52;;;;;;;0.30;0.30;;;;;;;22.53;10.93;99755.59;5073212;28;20110;-72
2022/01/01 06:19:19;;;;;;;0.30;0.30;;;;;;;22.54;10.94;99759.13;5073739;28;20056;-72
2022/01/01 06:21:44;;;;;;;0.30;0.30;;;;;;;22.53;11.09;99769.19;5074143;28;20093;-73
2022/01/01 06:24:09;;;;;;;0.30;0.30;;;;;;;22.55;10.99;99777.09;5073609;28;20028;-73
2022/01/01 06:26:35;;;;;;;0.30;0.30;;;;;;;22.54;11.12;99786.34;5073289;28;20540;-73
2022/01/01 06:29:00;;;;;;;0.30;0.30;;;;;;;22.57;10.84;99785.78;5073436;28;20071;-72
2022/01/01 06:31:26;;;;;;;0.22;0.22;;;;;;;22.55;10.91;99783.34;5073470;28;20025;-73
2022/01/01 06:33:51;;;;;;;0.10;0.10;;;;;;;22.55;10.85;99799.69;5072593;28;20073;-73
2022/01/01 06:36:17;;;;;;;0.30;0.30;;;;;;;22.55;10.95;99804.31;5073209;28;20467;-72
2022/01/01 06:38:43;;;;;;;0.20;0.20;;;;;;;22.53;10.81;99804.59;5073269;28;20037;-72
2022/01/01 06:41:09;;;;;;;0.20;0.20;;;;;;;22.52;10.79;99811.13;5071815;28;20028;-72
2022/01/01 06:43:34;;;;;;;0.30;0.30;;;;;;;22.52;10.72;99822.03;5074065;28;20036;-72
2022/01/01 06:45:59;;;;;;;0.30;0.30;;;;;;;22.52;10.80;99822.03;5073218;28;20048;-72
2022/01/01 06:48:25;;;;;;;0.20;0.20;;;;;;;22.53;10.85;99823.66;5072961;28;20035;-73
2022/01/01 06:50:51;;;;;;;0.30;0.30;;;;;;;22.53;10.81;99823.66;5073239;28;20020;-72
2022/01/01 06:53:17;;;;;;;0.20;0.20;;;;;;;22.51;10.81;99823.13;5073189;28;20078;-73
2022/01/01 06:55:42;;;;;;;0.22;0.22;;;;;;;22.51;10.79;99825.84;5073323;28;20029;-73
2022/01/01 06:58:08;;;;;;;0.30;0.30;;;;;;;22.52;10.73;99827.47;5073290;28;20463;-72
2022/01/01 07:00:33;;;;;;;0.30;0.30;;;;;;;22.53;10.79;99840.00;5072072;28;20420;-73
2022/01/01 07:02:59;;;;;;;0.30;0.30;;;;;;;22.50;10.68;99848.72;5076722;28;20103;-72
2022/01/01 07:05:24;;;;;;;0.20;0.20;;;;;;;22.51;10.66;99847.66;5076875;28;20035;-72
2022/01/01 07:07:50;;;;;;;0.30;0.30;;;;;;;22.52;10.58;99854.69;5076977;28;20033;-72
2022/01/01 07:10:15;;;;;;;0.30;0.30;;;;;;;22.52;10.60;99854.69;5077196;28;20025;-73
2022/01/01 07:12:40;;;;;;;0.28;0.28;;;;;;;22.51;10.53;99866.69;5076755;28;20383;-74
2022/01/01 07:15:07;;;;;;;0.35;0.35;;;;;;;22.51;10.51;99866.69;5064039;28;20045;-73
2022/01/01 07:17:32;;;;;;;0.17;0.17;;;;;;;22.50;10.54;99870.50;5056728;28;20578;-73
2022/01/01 07:19:58;;;;;;;0.20;0.20;;;;;;;22.50;10.50;99867.78;5056673;28;20017;-73
2022/01/01 07:22:23;;;;;;;0.20;0.20;;;;;;;22.50;10.39;99884.13;5056970;28;20021;-73
2022/01/01 07:24:51;;;;;;;0.25;0.25;;;;;;;22.49;10.47;99883.31;5056955;28;20025;-73
2022/01/01 07:27:17;;;;;;;0.20;0.20;;;;;;;22.48;10.43;99886.31;5057367;28;20036;-73
2022/01/01 07:29:42;;;;;;;0.20;0.20;;;;;;;22.48;10.35;99898.00;5056748;28;20048;-73
2022/01/01 07:32:08;;;;;;;0.30;0.30;;;;;;;22.48;10.27;99902.66;5056478;28;20467;-73
2022/01/01 07:34:33;;;;;;;0.28;0.28;;;;;;;22.49;10.33;99909.72;5056685;28;20029;-72
2022/01/01 07:36:59;;;;;;;0.20;0.20;;;;;;;22.50;10.40;99908.63;5056906;28;20021;-73
2022/01/01 07:39:24;;;;;;;0.30;0.30;;;;;;;22.49;10.36;99910.53;5056636;28;20080;-73
2022/01/01 07:41:50;;;;;;;0.30;0.30;;;;;;;22.50;10.21;99922.25;5056916;28;20036;-73
2022/01/01 07:44:15;;;;;;;0.30;0.30;;;;;;;22.51;10.17;99926.59;5071383;28;20025;-73
2022/01/01 07:46:40;;;;;;;0.30;0.30;;;;;;;22.49;10.13;99936.94;5065908;28;20029;-73
2022/01/01 07:49:06;;;;;;;0.30;0.30;;;;;;;22.48;10.16;99935.31;5065597;28;20021;-73
2022/01/01 07:51:32;;;;;;;0.30;0.30;;;;;;;22.48;9.95;99933.41;5063317;28;20060;-73
2022/01/01 07:53:57;;;;;;;0.20;0.20;;;;;;;22.50;9.93;99941.31;5065295;28;20091;-73
2022/01/01 07:56:22;;;;;;;0.30;0.30;;;;;;;22.49;9.93;99945.09;5066434;28;20021;-73
2022/01/01 07:58:48;;;;;;;0.20;0.20;;;;;;;22.49;9.93;99942.38;5063734;28;20073;-73
2022/01/01 08:01:13;;;;;;;0.30;0.30;;;;;;;22.48;9.88;99951.66;5056382;28;20037;-72
2022/01/01 08:03:39;;;;;;;0.30;0.30;;;;;;;22.48;9.92;99960.63;5055842;28;20472;-73
2022/01/01 08:06:04;;;;;;;0.20;0.20;;;;;;;22.48;9.75;99962.56;5056214;28;20025;-73
2022/01/01 08:08:30;;;;;;;0.20;0.20;;;;;;;22.49;9.68;99964.16;5056089;28;20505;-73
2022/01/01 08:10:56;;;;;;;0.20;0.20;;;;;;;22.49;9.72;99959.56;5055815;28;20463;-72
2022/01/01 08:13:24;;;;;;;0.20;0.20;;;;;;;22.49;9.62;99984.06;5053121;28;20029;-73
2022/01/01 08:15:49;;;;;;;0.20;0.20;;;;;;;22.47;9.56;99988.13;5070420;28;20049;-73
2022/01/01 08:18:15;;;;;;;0.20;0.20;;;;;;;22.49;9.59;99994.13;5075801;28;20385;-72
2022/01/01 08:20:40;;;;;;;0.20;0.20;;;;;;;22.47;9.58;99994.41;5075878;28;20416;-72
2022/01/01 08:23:06;;;;;;;0.17;0.17;;;;;;;22.47;9.53;99988.97;5075541;28;20543;-72
2022/01/01 08:25:31;;;;;;;0.20;0.20;;;;;;;22.48;9.50;99996.03;5075648;28;20035;-72
2022/01/01 08:27:57;;;;;;;0.20;0.20;;;;;;;22.48;9.54;100003.41;5074275;28;20031;-72
2022/01/01 08:30:22;;;;;;;0.20;0.20;;;;;;;22.48;9.36;100009.66;5075783;28;20127;-72
2022/01/01 08:32:48;;;;;;;0.30;0.30;;;;;;;22.47;9.36;100015.38;5075826;28;20356;-72
2022/01/01 08:35:14;;;;;;;0.20;0.20;;;;;;;22.48;9.28;100033.34;5073618;28;20041;-72
2022/01/01 08:37:39;;;;;;;0.20;0.20;;;;;;;22.46;9.52;100021.91;5075808;28;20021;-72
2022/01/01 08:40:05;;;;;;;0.20;0.20;;;;;;;22.46;9.48;100040.97;5075476;28;20363;-72
2022/01/01 08:42:33;;;;;;;0.25;0.25;;;;;;;22.47;9.38;100043.44;5075409;28;20493;-72
2022/01/01 08:44:59;;;;;;;0.20;0.20;;;;;;;22.46;9.36;100046.44;5075158;28;20031;-72
2022/01/01 08:47:26;;;;;;;0.20;0.20;;;;;;;22.44;9.23;100049.41;5075136;28;20028;-72
2022/01/01 08:49:55;;;;;;;0.20;0.20;;;;;;;22.44;9.35;100048.63;5074836;28;20043;-72
2022/01/01 08:52:22;;;;;;;0.22;0.22;;;;;;;22.43;9.25;100063.31;5075034;28;20028;-72
2022/01/01 08:54:47;;;;;;;0.30;0.30;;;;;;;22.45;9.22;100077.44;5075209;28;20024;-72
2022/01/01 08:57:12;;;;;;;0.30;0.30;;;;;;;22.45;9.35;100072.00;5075850;28;20359;-72
2022/01/01 08:59:38;;;;;;;0.20;0.20;;;;;;;22.47;9.40;100075.28;5075062;28;20036;-72
2022/01/01 09:02:03;;;;;;;0.20;0.20;;;;;;;22.46;9.41;100084.53;5074813;28;20074;-72
2022/01/01 09:04:29;;;;;;;0.20;0.20;;;;;;;22.46;9.26;100088.06;5073833;28;20024;-72
2022/01/01 09:06:54;;;;;;;0.20;0.20;;;;;;;22.45;9.29;100089.16;5075077;28;20025;-72
2022/01/01 09:09:20;;;;;;;0.20;0.20;;;;;;;22.46;9.26;100100.88;5074888;28;20035;-72
2022/01/01 09:11:45;;;;;;;0.20;0.20;;;;;;;22.46;9.29;100095.44;5074907;28;20021;-72
2022/01/01 09:14:12;;;;;;;0.20;0.20;;;;;;;22.44;9.29;100109.31;5074481;28;20429;-72
2022/01/01 09:16:37;;;;;;;0.25;0.25;;;;;;;22.43;9.23;100113.13;5074336;28;20135;-72
2022/01/01 09:19:05;;;;;;;0.20;0.20;;;;;;;22.44;9.20;100113.97;5074729;28;20456;-72
2022/01/01 09:21:30;;;;;;;0.30;0.30;;;;;;;22.44;9.23;100119.41;5074817;28;20055;-72
2022/01/01 09:23:56;;;;;;;0.20;0.20;;;;;;;22.45;9.28;100126.47;5074118;28;20017;-72
2022/01/01 09:26:21;;;;;;;0.20;0.20;;;;;;;22.44;9.21;100136.53;5074532;28;20024;-72
2022/01/01 09:28:46;;;;;;;0.28;0.28;;;;;;;22.42;9.17;100133.28;5074260;28;20031;-74
2022/01/01 09:31:12;;;;;;;0.30;0.30;;;;;;;22.43;9.22;100136.81;5074587;28;20024;-73
2022/01/01 09:33:37;;;;;;;0.30;0.30;;;;;;;22.44;9.17;100142.00;5073442;28;20154;-73
2022/01/01 09:36:04;;;;;;;0.20;0.20;;;;;;;22.42;9.25;100143.34;5074773;28;20078;-74
2022/01/01 09:38:30;;;;;;;0.22;0.22;;;;;;;22.42;9.20;100146.06;5074675;28;20040;-73
2022/01/01 09:40:56;;;;;;;0.10;0.10;;;;;;;22.41;9.29;100147.16;5075295;28;20024;-73
2022/01/01 09:43:22;;;;;;;0.20;0.20;;;;;;;22.40;9.25;100151.78;5073103;28;20024;-73
2022/01/01 09:45:48;;;;;;;0.30;0.30;;;;;;;22.40;9.23;100162.66;5074575;28;20463;-73
2022/01/01 09:48:14;;;;;;;0.20;0.20;;;;;;;22.40;9.19;100157.22;5074373;28;20419;-73
2022/01/01 09:50:42;;;;;;;0.30;0.20;;;;;;;22.43;9.20;100172.22;5076206;28;20027;-73
2022/01/01 09:53:07;;;;;;;0.10;0.10;;;;;;;22.42;9.15;100176.84;5057768;28;20463;-73
2022/01/01 09:55:34;;;;;;;0.20;0.20;;;;;;;22.43;9.14;100185.81;5072913;28;20024;-73
2022/01/01 09:57:59;;;;;;;0.20;0.20;;;;;;;22.42;9.21;100187.75;5073342;28;20040;-73
2022/01/01 10:00:25;;;;;;;0.30;0.30;;;;;;;22.42;9.27;100195.06;5073670;28;20498;-72
2022/01/01 10:02:50;;;;;;;0.20;0.20;;;;;;;22.44;9.14;100195.63;5074144;28;20033;-72
2022/01/01 10:05:16;;;;;;;0.20;0.20;;;;;;;22.43;9.19;100188.56;5073631;28;20024;-72
2022/01/01 10:07:41;;;;;;;0.20;0.20;;;;;;;22.44;9.03;100190.19;5072670;28;20056;-73
2022/01/01 10:10:23;;;;;;;0.20;0.20;;;;;;;22.46;9.15;100196.19;5074398;28;20462;-73
2022/01/01 10:12:48;;;;;;;0.20;0.20;;;;;;;22.44;9.16;100196.44;5073701;28;20143;-73
2022/01/01 10:15:14;;;;;;;0.20;0.20;;;;;;;22.42;9.23;100197.78;5065782;28;20072;-72
2022/01/01 10:17:40;;;;;;;0.20;0.20;;;;;;;22.40;9.12;100197.25;5053540;28;20029;-72
2022/01/01 10:20:05;;;;;;;0.20;0.20;;;;;;;22.42;9.16;100211.41;5053530;28;20040;-73
2022/01/01 10:22:31;;;;;;;0.20;0.20;;;;;;;22.42;8.87;100214.13;5051884;28;20063;-73
2022/01/01 10:28:02;;;;;;;0.30;0.30;;;;;;;22.43;9.21;100223.94;5053126;28;20032;-73
2022/01/01 10:30:36;;;;;;;0.20;0.20;;;;;;;22.41;9.17;100229.66;5053413;28;20426;-73
2022/01/01 10:33:12;;;;;;;0.15;0.15;;;;;;;22.41;9.20;100224.22;5053386;28;20036;-73
2022/01/01 10:35:52;;;;;;;0.20;0.20;;;;;;;22.42;9.17;100225.03;5053684;28;20071;-72
2022/01/01 10:38:26;;;;;;;0.20;0.20;;;;;;;22.43;9.15;100221.22;5053662;28;20029;-73
2022/01/01 10:40:56;;;;;;;0.30;0.30;;;;;;;22.42;9.20;100228.59;5053140;28;20483;-73
2022/01/01 10:43:24;;;;;;;0.20;0.20;;;;;;;22.40;9.17;100238.09;5053759;28;20036;-73
2022/01/01 10:45:50;;;;;;;0.20;0.20;;;;;;;22.41;9.15;100234.28;5035673;28;20025;-73
2022/01/01 10:48:56;;;;;;;0.20;0.20;;;;;;;22.40;9.19;100238.91;5035460;28;20040;-73
2022/01/01 10:51:08;;;;;;;0.20;0.20;;;;;;;22.40;9.16;100243.53;5053354;28;20388;-73
2022/01/01 10:53:34;;;;;;;0.20;0.20;;;;;;;22.39;9.23;100239.19;5053457;28;20048;-73
2022/01/01 10:56:01;;;;;;;0.20;0.20;;;;;;;22.37;9.22;100241.34;5053395;28;20463;-72
2022/01/01 10:58:34;;;;;;;0.20;0.20;;;;;;;22.37;9.23;100255.81;5053555;28;20100;-72
2022/01/01 11:01:04;;;;;;;0.20;0.20;;;;;;;22.40;9.25;100260.69;5052967;28;20029;-72
2022/01/01 11:03:41;;;;;;;0.20;0.20;;;;;;;22.37;9.31;100265.84;5053336;28;20074;-72
2022/01/01 11:06:15;;;;;;;0.20;0.20;;;;;;;22.38;9.17;100264.78;5052383;28;20025;-72
2022/01/01 11:08:41;;;;;;;0.20;0.20;;;;;;;22.39;9.21;100269.97;5053011;28;20017;-72
2022/01/01 11:11:07;;;;;;;0.20;0.20;;;;;;;22.37;9.24;100274.84;5054012;28;20036;-72
2022/01/01 11:13:33;;;;;;;0.20;0.20;;;;;;;22.36;9.27;100275.94;5053333;28;20025;-72
2022/01/01 11:15:58;;;;;;;0.20;0.20;;;;;;;22.37;9.29;100276.75;5064569;28;20045;-73
2022/01/01 11:18:24;;;;;;;0.20;0.20;;;;;;;22.36;9.36;100281.38;5072756;28;20402;-73
2022/01/01 11:20:50;;;;;;;0.20;0.20;;;;;;;22.36;9.35;100284.09;5072967;28;20024;-73
2022/01/01 11:23:15;;;;;;;0.25;0.25;;;;;;;22.37;9.36;100287.63;5071913;28;20025;-73
2022/01/01 11:25:41;;;;;;;0.20;0.20;;;;;;;22.39;9.30;100290.94;5071908;28;20467;-73
2022/01/01 11:28:10;;;;;;;0.20;0.20;;;;;;;22.36;9.47;100296.91;5073247;28;20103;-73
2022/01/01 11:30:38;;;;;;;0.20;0.20;;;;;;;22.38;9.43;100306.44;5073229;28;20103;-73
2022/01/01 11:33:08;;;;;;;0.20;0.20;;;;;;;22.36;9.47;100310.50;5072596;28;20039;-73
2022/01/01 11:35:35;;;;;;;0.20;0.20;;;;;;;22.36;9.49;100314.06;5072845;28;20079;-73